createdAt,value
2023-05-13T00:00:12.264Z,13.67
2023-05-13T00:02:40.523Z,13.64
2023-05-13T00:05:08.295Z,13.61
2023-05-13T00:07:35.662Z,13.56
2023-05-13T00:10:03.023Z,13.52
2023-05-13T00:12:31.550Z,13.49
2023-05-13T00:14:58.844Z,13.47
2023-05-13T00:17:26.235Z,13.43
2023-05-13T00:19:53.624Z,13.39
2023-05-13T00:22:20.978Z,13.34
2023-05-13T00:24:48.314Z,13.30
2023-05-13T00:27:15.596Z,13.27
2023-05-13T00:29:44.421Z,13.26
2023-05-13T00:32:11.775Z,13.22
2023-05-13T00:34:39.273Z,13.16
2023-05-13T00:37:10.530Z,13.16
2023-05-13T00:39:38.544Z,13.14
2023-05-13T00:42:08.309Z,13.09
2023-05-13T00:44:37.034Z,13.07
2023-05-13T00:47:10.408Z,13.03
2023-05-13T00:49:37.499Z,13.02
2023-05-13T00:52:05.573Z,12.96
2023-05-13T00:54:32.944Z,12.91
2023-05-13T00:57:01.034Z,12.89
2023-05-13T00:59:30.521Z,12.84
2023-05-13T01:02:21.114Z,12.82
2023-05-13T01:05:19.491Z,12.80
2023-05-13T01:08:27.216Z,12.77
2023-05-13T01:11:03.227Z,12.74
2023-05-13T01:13:37.269Z,12.73
2023-05-13T01:16:30.547Z,12.74
2023-05-13T01:19:00.044Z,12.77
2023-05-13T01:21:34.691Z,12.70
2023-05-13T01:24:03.019Z,12.69
2023-05-13T01:26:32.174Z,12.65
2023-05-13T01:28:59.709Z,12.63
2023-05-13T01:31:32.642Z,12.62
2023-05-13T01:34:00.862Z,12.61
2023-05-13T01:36:28.914Z,12.66
2023-05-13T01:38:56.251Z,12.60
2023-05-13T01:41:24.757Z,12.59
2023-05-13T01:43:52.708Z,12.59
2023-05-13T01:46:19.857Z,12.55
2023-05-13T01:48:51.083Z,12.54
2023-05-13T01:51:21.956Z,12.52
2023-05-13T01:53:50.654Z,12.52
2023-05-13T01:56:19.653Z,12.51
2023-05-13T01:58:48.770Z,12.51
2023-05-13T02:01:15.946Z,12.51
2023-05-13T02:03:45.139Z,12.60
2023-05-13T02:06:14.608Z,12.60
2023-05-13T02:08:41.754Z,12.62
2023-05-13T02:11:09.017Z,12.66
2023-05-13T02:13:37.304Z,12.71
2023-05-13T02:16:04.541Z,12.65
2023-05-13T02:18:32.799Z,12.69
2023-05-13T02:20:59.884Z,12.72
2023-05-13T02:23:28.006Z,12.79
2023-05-13T02:25:55.978Z,12.85
2023-05-13T02:28:23.111Z,12.93
2023-05-13T02:30:50.111Z,13.01
2023-05-13T02:33:17.155Z,13.09
2023-05-13T02:35:44.346Z,13.18
2023-05-13T02:38:12.493Z,13.35
2023-05-13T02:40:39.529Z,13.65
2023-05-13T02:43:06.620Z,13.94
2023-05-13T02:45:42.646Z,14.26
2023-05-13T02:48:13.763Z,14.62
2023-05-13T02:50:41.335Z,14.96
2023-05-13T02:53:11.302Z,15.33
2023-05-13T02:55:43.036Z,15.73
2023-05-13T02:58:10.118Z,16.13
2023-05-13T03:00:37.219Z,16.43
2023-05-13T03:03:04.418Z,16.81
2023-05-13T03:05:31.801Z,17.22
2023-05-13T03:07:59.075Z,17.55
2023-05-13T03:10:26.269Z,17.90
2023-05-13T03:12:53.359Z,18.33
2023-05-13T03:15:20.576Z,18.59
2023-05-13T03:17:47.834Z,18.93
2023-05-13T03:20:15.484Z,19.32
2023-05-13T03:22:42.815Z,19.73
2023-05-13T03:25:11.746Z,20.09
2023-05-13T03:27:46.263Z,20.45
2023-05-13T03:30:14.360Z,20.80
2023-05-13T03:32:49.348Z,21.10
2023-05-13T03:35:16.488Z,21.45
2023-05-13T03:37:43.792Z,21.87
2023-05-13T03:40:11.356Z,22.21
2023-05-13T03:42:38.790Z,22.58
2023-05-13T03:45:06.527Z,22.90
2023-05-13T03:47:33.844Z,23.12
2023-05-13T03:50:03.020Z,23.66
2023-05-13T03:52:35.866Z,24.40
2023-05-13T03:55:03.205Z,24.64
2023-05-13T03:57:30.308Z,24.82
2023-05-13T03:59:57.528Z,25.10
2023-05-13T04:02:24.976Z,25.12
2023-05-13T04:04:52.354Z,25.35
2023-05-13T04:07:19.539Z,25.76
2023-05-13T04:09:46.728Z,25.78
2023-05-13T04:12:14.850Z,26.06
2023-05-13T04:14:41.994Z,26.27
2023-05-13T04:17:09.485Z,26.38
2023-05-13T04:19:36.810Z,26.61
2023-05-13T04:22:04.072Z,26.94
2023-05-13T04:24:31.850Z,27.12
2023-05-13T04:27:01.190Z,27.30
2023-05-13T04:29:29.620Z,27.67
2023-05-13T04:31:57.162Z,27.95
2023-05-13T04:34:24.836Z,28.20
2023-05-13T04:36:52.803Z,28.42
2023-05-13T04:39:20.147Z,28.61
2023-05-13T04:41:47.371Z,28.77
2023-05-13T04:44:14.984Z,28.94
2023-05-13T04:46:44.994Z,28.95
2023-05-13T04:49:12.178Z,29.13
2023-05-13T04:51:40.115Z,29.32
2023-05-13T04:54:08.157Z,29.34
2023-05-13T04:56:38.840Z,29.47
2023-05-13T04:59:06.006Z,29.52
2023-05-13T05:01:33.262Z,29.67
2023-05-13T05:04:00.500Z,29.43
2023-05-13T05:06:27.698Z,29.56
2023-05-13T05:08:55.368Z,29.85
2023-05-13T05:11:24.256Z,30.13
2023-05-13T05:13:52.260Z,30.44
2023-05-13T05:16:19.918Z,30.74
2023-05-13T05:18:47.524Z,31.16
2023-05-13T05:21:18.447Z,31.41
2023-05-13T05:23:46.092Z,31.56
2023-05-13T05:26:13.143Z,31.70
2023-05-13T05:28:43.366Z,32.00
2023-05-13T05:31:10.760Z,32.23
2023-05-13T05:33:39.685Z,32.02
2023-05-13T05:36:07.300Z,31.96
2023-05-13T05:38:35.066Z,32.24
2023-05-13T05:41:03.110Z,32.64
2023-05-13T05:43:31.045Z,33.03
2023-05-13T05:45:58.243Z,33.41
2023-05-13T05:48:28.875Z,33.35
2023-05-13T05:51:16.176Z,32.94
2023-05-13T05:53:44.317Z,32.91
2023-05-13T05:56:13.370Z,32.73
2023-05-13T05:58:40.824Z,33.05
2023-05-13T06:01:08.081Z,33.27
2023-05-13T06:03:35.324Z,33.38
2023-05-13T06:06:02.891Z,33.04
2023-05-13T06:08:31.269Z,32.19
2023-05-13T06:10:58.568Z,31.53
2023-05-13T06:13:26.461Z,30.94
2023-05-13T06:15:53.739Z,30.29
2023-05-13T06:18:21.353Z,30.11
2023-05-13T06:20:48.515Z,30.13
2023-05-13T06:23:15.963Z,29.95
2023-05-13T06:25:43.254Z,29.53
2023-05-13T06:28:11.124Z,29.29
2023-05-13T06:30:38.985Z,29.36
2023-05-13T06:33:06.329Z,29.50
2023-05-13T06:35:33.563Z,29.98
2023-05-13T06:38:03.655Z,30.10
2023-05-13T06:40:31.363Z,30.30
2023-05-13T06:42:58.559Z,30.74
2023-05-13T06:45:30.594Z,31.12
2023-05-13T06:47:58.576Z,30.83
2023-05-13T06:50:25.732Z,30.87
2023-05-13T06:52:52.702Z,31.50
2023-05-13T06:55:20.058Z,31.94
2023-05-13T06:57:47.532Z,32.09
2023-05-13T07:00:15.462Z,32.17
2023-05-13T07:02:42.694Z,32.45
2023-05-13T07:05:12.014Z,32.67
2023-05-13T07:07:39.337Z,32.87
2023-05-13T07:10:06.817Z,32.65
2023-05-13T07:12:34.612Z,32.77
2023-05-13T07:15:01.854Z,33.03
2023-05-13T07:17:29.246Z,33.24
2023-05-13T07:20:01.431Z,32.92
2023-05-13T07:22:30.292Z,32.96
2023-05-13T07:24:59.831Z,32.51
2023-05-13T07:27:27.268Z,32.89
2023-05-13T07:29:54.377Z,33.18
2023-05-13T07:32:21.443Z,33.35
2023-05-13T07:34:48.490Z,33.71
2023-05-13T07:37:15.525Z,33.49
2023-05-13T07:39:42.602Z,33.40
2023-05-13T07:42:10.332Z,33.35
2023-05-13T07:44:37.275Z,33.30
2023-05-13T07:47:04.388Z,33.42
2023-05-13T07:49:31.489Z,33.38
2023-05-13T07:51:58.636Z,33.21
2023-05-13T07:54:25.740Z,33.18
2023-05-13T07:56:52.937Z,32.42
2023-05-13T07:59:20.356Z,32.44
2023-05-13T08:01:47.437Z,32.30
2023-05-13T08:04:14.644Z,31.66
2023-05-13T08:06:41.886Z,32.15
2023-05-13T08:09:09.979Z,32.76
2023-05-13T08:11:37.088Z,33.03
2023-05-13T08:14:05.161Z,32.93
2023-05-13T08:16:32.223Z,32.60
2023-05-13T08:18:59.457Z,32.68
2023-05-13T08:21:26.563Z,32.73
2023-05-13T08:23:54.044Z,32.59
2023-05-13T08:26:21.071Z,32.43
2023-05-13T08:28:48.836Z,32.17
2023-05-13T08:31:17.531Z,32.23
2023-05-13T08:33:47.746Z,32.47
2023-05-13T08:36:14.965Z,32.18
2023-05-13T08:38:43.843Z,32.13
2023-05-13T08:41:17.051Z,31.95
2023-05-13T08:43:44.202Z,31.93
2023-05-13T08:46:12.063Z,30.97
2023-05-13T08:48:39.718Z,30.66
2023-05-13T08:51:06.962Z,30.38
2023-05-13T08:53:34.700Z,30.25
2023-05-13T08:56:01.816Z,30.40
2023-05-13T08:58:28.924Z,30.49
2023-05-13T09:00:55.990Z,30.82
2023-05-13T09:03:23.121Z,31.30
2023-05-13T09:05:50.301Z,31.50
2023-05-13T09:08:17.389Z,31.78
2023-05-13T09:10:44.540Z,31.94
2023-05-13T09:13:12.057Z,32.16
2023-05-13T09:15:41.259Z,32.14
2023-05-13T09:18:08.419Z,32.17
2023-05-13T09:20:35.850Z,31.94
2023-05-13T09:23:06.704Z,30.99
2023-05-13T09:25:33.967Z,30.53
2023-05-13T09:28:01.783Z,30.27
2023-05-13T09:30:29.514Z,30.47
2023-05-13T09:33:12.331Z,30.32
2023-05-13T09:35:42.439Z,30.26
2023-05-13T09:38:19.488Z,30.50
2023-05-13T09:40:53.419Z,30.67
2023-05-13T09:43:23.066Z,30.83
2023-05-13T09:45:54.409Z,30.76
2023-05-13T09:48:22.732Z,31.03
2023-05-13T09:50:50.208Z,31.09
2023-05-13T09:53:17.347Z,31.11
2023-05-13T09:55:45.243Z,31.09
2023-05-13T09:58:12.833Z,31.07
2023-05-13T10:00:41.123Z,31.10
2023-05-13T10:03:08.959Z,31.18
2023-05-13T10:05:36.135Z,31.04
2023-05-13T10:08:03.387Z,30.93
2023-05-13T10:10:31.027Z,30.69
2023-05-13T10:13:06.901Z,30.58
2023-05-13T10:15:37.444Z,29.86
2023-05-13T10:18:07.234Z,29.86
2023-05-13T10:20:34.743Z,29.85
2023-05-13T10:23:08.062Z,29.71
2023-05-13T10:25:38.856Z,29.25
2023-05-13T10:28:17.011Z,29.15
2023-05-13T10:30:44.475Z,28.84
2023-05-13T10:33:11.769Z,28.40
2023-05-13T10:35:41.925Z,28.39
2023-05-13T10:38:32.624Z,28.25
2023-05-13T10:40:59.707Z,28.05
2023-05-13T10:43:30.584Z,28.08
2023-05-13T10:46:01.564Z,28.17
2023-05-13T10:48:39.266Z,28.15
2023-05-13T10:51:08.323Z,28.08
2023-05-13T10:53:56.078Z,27.92
2023-05-13T10:56:25.020Z,27.86
2023-05-13T10:59:02.754Z,27.88
2023-05-13T11:01:30.167Z,27.89
2023-05-13T11:03:58.635Z,27.74
2023-05-13T11:06:42.373Z,27.44
2023-05-13T11:09:13.487Z,27.27
2023-05-13T11:11:40.805Z,27.58
2023-05-13T11:14:10.757Z,27.63
2023-05-13T11:16:38.250Z,27.58
2023-05-13T11:19:11.183Z,27.75
2023-05-13T11:21:41.398Z,28.08
2023-05-13T11:24:08.699Z,28.26
2023-05-13T11:26:45.419Z,28.23
2023-05-13T11:29:12.642Z,28.33
2023-05-13T11:31:50.145Z,28.08
2023-05-13T11:34:17.896Z,27.61
2023-05-13T11:36:52.138Z,27.33
2023-05-13T11:39:19.853Z,27.42
2023-05-13T11:41:47.606Z,27.68
2023-05-13T11:44:15.697Z,27.73
2023-05-13T11:47:09.233Z,27.76
2023-05-13T11:49:36.680Z,27.81
2023-05-13T11:52:04.654Z,27.35
2023-05-13T11:54:31.983Z,26.99
2023-05-13T11:56:59.218Z,27.28
2023-05-13T11:59:27.901Z,27.36
2023-05-13T12:02:01.428Z,27.44
2023-05-13T12:04:29.876Z,27.38
2023-05-13T12:06:57.417Z,27.49
2023-05-13T12:09:25.065Z,27.46
2023-05-13T12:11:52.959Z,27.22
2023-05-13T12:14:20.302Z,27.27
2023-05-13T12:16:47.618Z,27.20
2023-05-13T12:19:14.860Z,27.21
2023-05-13T12:21:42.340Z,27.29
2023-05-13T12:24:22.163Z,27.27
2023-05-13T12:26:49.411Z,27.25
2023-05-13T12:29:16.587Z,27.22
2023-05-13T12:31:44.300Z,27.17
2023-05-13T12:34:11.540Z,27.26
2023-05-13T12:36:38.981Z,27.20
2023-05-13T12:39:07.079Z,27.28
2023-05-13T12:41:35.282Z,27.39
2023-05-13T12:44:03.550Z,27.33
2023-05-13T12:46:30.840Z,27.38
2023-05-13T12:49:01.947Z,27.47
2023-05-13T12:51:30.094Z,27.76
2023-05-13T12:53:58.074Z,27.96
2023-05-13T12:56:25.705Z,27.57
2023-05-13T12:58:55.846Z,27.61
2023-05-13T13:01:23.135Z,27.54
2023-05-13T13:03:50.458Z,27.32
2023-05-13T13:06:17.987Z,27.19
2023-05-13T13:08:45.125Z,26.98
2023-05-13T13:11:18.641Z,27.04
2023-05-13T13:13:46.491Z,27.06
2023-05-13T13:16:13.813Z,27.13
2023-05-13T13:18:41.957Z,27.05
2023-05-13T13:21:10.064Z,26.96
2023-05-13T13:23:37.215Z,26.94
2023-05-13T13:26:04.564Z,26.77
2023-05-13T13:28:31.953Z,26.59
2023-05-13T13:31:00.317Z,26.47
2023-05-13T13:33:27.620Z,26.31
2023-05-13T13:35:55.200Z,26.21
2023-05-13T13:38:22.420Z,26.22
2023-05-13T13:40:49.668Z,26.42
2023-05-13T13:43:17.067Z,26.60
2023-05-13T13:45:44.326Z,26.66
2023-05-13T13:48:11.645Z,26.64
2023-05-13T13:50:38.885Z,26.81
2023-05-13T13:53:06.151Z,26.97
2023-05-13T13:55:33.273Z,26.90
2023-05-13T13:58:00.386Z,26.82
2023-05-13T14:00:27.590Z,26.60
2023-05-13T14:02:55.127Z,26.56
2023-05-13T14:05:22.613Z,26.66
2023-05-13T14:07:54.049Z,26.44
2023-05-13T14:10:21.558Z,26.35
2023-05-13T14:12:48.802Z,26.37
2023-05-13T14:15:16.013Z,26.29
2023-05-13T14:17:43.413Z,26.22
2023-05-13T14:20:12.300Z,26.18
2023-05-13T14:22:39.467Z,26.18
2023-05-13T14:25:06.767Z,26.23
2023-05-13T14:27:36.593Z,26.32
2023-05-13T14:30:04.691Z,26.30
2023-05-13T14:32:32.134Z,26.25
2023-05-13T14:34:59.403Z,26.11
2023-05-13T14:37:26.566Z,25.93
2023-05-13T14:39:53.656Z,25.90
2023-05-13T14:42:21.487Z,25.91
2023-05-13T14:44:48.598Z,25.87
2023-05-13T14:47:15.862Z,25.81
2023-05-13T14:49:43.047Z,25.75
2023-05-13T14:52:10.207Z,25.86
2023-05-13T14:54:38.334Z,25.89
2023-05-13T14:57:06.133Z,25.90
2023-05-13T14:59:33.517Z,25.91
2023-05-13T15:02:01.510Z,25.90
2023-05-13T15:04:28.623Z,25.80
2023-05-13T15:06:59.537Z,25.75
2023-05-13T15:09:27.126Z,25.74
2023-05-13T15:11:54.527Z,25.73
2023-05-13T15:14:30.154Z,25.67
2023-05-13T15:17:01.380Z,25.48
2023-05-13T15:19:29.597Z,25.30
2023-05-13T15:21:56.936Z,25.37
2023-05-13T15:24:24.308Z,25.33
2023-05-13T15:26:51.615Z,25.36
2023-05-13T15:29:18.809Z,25.36
2023-05-13T15:31:46.673Z,25.34
2023-05-13T15:34:14.176Z,25.28
2023-05-13T15:36:41.528Z,25.19
2023-05-13T15:39:08.618Z,25.02
2023-05-13T15:41:37.144Z,24.94
2023-05-13T15:44:04.520Z,24.95
2023-05-13T15:46:33.859Z,24.91
2023-05-13T15:49:01.279Z,24.91
2023-05-13T15:51:28.830Z,24.96
2023-05-13T15:53:56.358Z,24.80
2023-05-13T15:56:23.921Z,24.67
2023-05-13T15:58:52.694Z,24.62
2023-05-13T16:01:22.600Z,24.66
2023-05-13T16:03:52.554Z,24.62
2023-05-13T16:06:23.372Z,24.52
2023-05-13T16:08:50.888Z,24.47
2023-05-13T16:11:18.949Z,24.49
2023-05-13T16:13:47.610Z,24.48
2023-05-13T16:16:17.570Z,24.44
2023-05-13T16:18:47.206Z,24.39
2023-05-13T16:21:18.250Z,24.30
2023-05-13T16:23:46.459Z,24.19
2023-05-13T16:26:13.649Z,24.13
2023-05-13T16:28:41.499Z,24.02
2023-05-13T16:31:08.758Z,23.96
2023-05-13T16:33:36.516Z,23.90
2023-05-13T16:36:03.888Z,23.80
2023-05-13T16:38:31.317Z,23.74
2023-05-13T16:40:58.583Z,23.66
2023-05-13T16:43:25.756Z,23.59
2023-05-13T16:45:52.874Z,23.52
2023-05-13T16:48:20.427Z,23.42
2023-05-13T16:50:47.994Z,23.32
2023-05-13T16:53:15.173Z,23.26
2023-05-13T16:55:42.291Z,23.20
2023-05-13T16:58:09.723Z,23.13
2023-05-13T17:00:36.849Z,23.03
2023-05-13T17:03:04.257Z,22.92
2023-05-13T17:05:32.208Z,22.83
2023-05-13T17:07:59.318Z,22.78
2023-05-13T17:10:26.420Z,22.72
2023-05-13T17:12:53.496Z,22.65
2023-05-13T17:15:21.577Z,22.55
2023-05-13T17:17:48.678Z,22.48
2023-05-13T17:20:16.005Z,22.40
2023-05-13T17:22:47.499Z,22.26
2023-05-13T17:25:14.942Z,22.14
2023-05-13T17:27:42.103Z,22.10
2023-05-13T17:30:09.421Z,22.00
2023-05-13T17:32:36.636Z,21.90
2023-05-13T17:35:04.679Z,21.81
2023-05-13T17:37:31.768Z,21.72
2023-05-13T17:40:01.067Z,21.64
2023-05-13T17:42:33.239Z,21.59
2023-05-13T17:45:02.253Z,21.54
2023-05-13T17:47:29.825Z,21.47
2023-05-13T17:49:56.974Z,21.37
2023-05-13T17:52:24.088Z,21.27
2023-05-13T17:54:51.299Z,21.23
2023-05-13T17:57:18.572Z,21.21
2023-05-13T17:59:45.797Z,21.16
2023-05-13T18:02:12.917Z,21.08
2023-05-13T18:04:41.258Z,21.01
2023-05-13T18:07:08.462Z,20.93
2023-05-13T18:09:36.196Z,20.86
2023-05-13T18:12:03.547Z,20.75
2023-05-13T18:14:32.509Z,20.66
2023-05-13T18:16:59.951Z,20.57
2023-05-13T18:19:27.703Z,20.51
2023-05-13T18:21:54.905Z,20.44
2023-05-13T18:24:22.635Z,20.38
2023-05-13T18:26:49.824Z,20.32
2023-05-13T18:29:17.000Z,20.30
2023-05-13T18:31:44.235Z,20.32
2023-05-13T18:34:11.814Z,20.29
2023-05-13T18:36:39.056Z,20.23
2023-05-13T18:39:06.425Z,20.14
2023-05-13T18:41:33.611Z,20.02
2023-05-13T18:44:00.731Z,19.90
2023-05-13T18:46:27.906Z,19.79
2023-05-13T18:48:55.295Z,19.67
2023-05-13T18:51:22.589Z,19.58
2023-05-13T18:53:49.812Z,19.58
2023-05-13T18:56:17.417Z,19.52
2023-05-13T18:58:46.922Z,19.47
2023-05-13T19:01:15.911Z,19.44
2023-05-13T19:03:43.319Z,19.41
2023-05-13T19:06:10.561Z,19.40
2023-05-13T19:08:37.667Z,19.39
2023-05-13T19:11:04.842Z,19.36
2023-05-13T19:13:45.768Z,19.29
2023-05-13T19:16:14.596Z,19.22
2023-05-13T19:18:42.052Z,19.18
2023-05-13T19:21:09.637Z,19.14
2023-05-13T19:23:37.711Z,19.06
2023-05-13T19:26:04.959Z,18.97
2023-05-13T19:28:32.735Z,18.94
2023-05-13T19:31:00.043Z,18.90
2023-05-13T19:33:27.171Z,18.85
2023-05-13T19:35:54.463Z,18.79
2023-05-13T19:38:22.402Z,18.73
2023-05-13T19:40:52.507Z,18.69
2023-05-13T19:43:19.954Z,18.66
2023-05-13T19:45:47.069Z,18.61
2023-05-13T19:48:14.252Z,18.56
2023-05-13T19:50:42.427Z,18.51
2023-05-13T19:53:09.614Z,18.45
2023-05-13T19:55:36.850Z,18.40
2023-05-13T19:58:04.104Z,18.36
2023-05-13T20:00:31.404Z,18.31
2023-05-13T20:02:58.600Z,18.25
2023-05-13T20:05:25.855Z,18.21
2023-05-13T20:07:52.993Z,18.17
2023-05-13T20:10:20.109Z,18.15
2023-05-13T20:12:47.267Z,18.13
2023-05-13T20:15:15.318Z,18.11
2023-05-13T20:17:43.529Z,18.05
2023-05-13T20:20:10.960Z,18.04
2023-05-13T20:22:38.257Z,18.04
2023-05-13T20:25:05.529Z,18.02
2023-05-13T20:27:32.857Z,17.97
2023-05-13T20:30:01.612Z,17.90
2023-05-13T20:32:28.877Z,17.81
2023-05-13T20:34:56.238Z,17.75
2023-05-13T20:37:24.121Z,17.69
2023-05-13T20:39:51.640Z,17.65
2023-05-13T20:42:21.765Z,17.63
2023-05-13T20:44:49.164Z,17.63
2023-05-13T20:47:16.969Z,17.60
2023-05-13T20:49:44.787Z,17.55
2023-05-13T20:52:12.109Z,17.54
2023-05-13T20:54:39.826Z,17.53
2023-05-13T20:57:07.067Z,17.52
2023-05-13T20:59:37.642Z,17.50
2023-05-13T21:02:04.954Z,17.46
2023-05-13T21:04:32.264Z,17.44
2023-05-13T21:07:01.911Z,17.40
2023-05-13T21:09:29.133Z,17.40
2023-05-13T21:11:56.345Z,17.38
2023-05-13T21:14:23.659Z,17.35
2023-05-13T21:16:50.834Z,17.33
2023-05-13T21:19:21.769Z,17.33
2023-05-13T21:21:48.816Z,17.28
2023-05-13T21:24:19.327Z,17.25
2023-05-13T21:26:46.558Z,17.19
2023-05-13T21:29:13.737Z,17.23
2023-05-13T21:31:41.066Z,17.21
2023-05-13T21:34:08.601Z,17.18
2023-05-13T21:36:39.147Z,17.14
2023-05-13T21:39:06.822Z,17.10
2023-05-13T21:41:34.041Z,17.07
2023-05-13T21:44:01.231Z,17.07
2023-05-13T21:46:28.404Z,17.07
2023-05-13T21:48:55.555Z,17.09
2023-05-13T21:51:22.665Z,17.08
2023-05-13T21:53:49.680Z,17.06
2023-05-13T21:56:16.868Z,17.01
2023-05-13T21:58:44.857Z,16.99
2023-05-13T22:01:11.988Z,17.03
2023-05-13T22:03:39.220Z,17.05
2023-05-13T22:06:06.395Z,17.03
2023-05-13T22:08:34.571Z,17.00
2023-05-13T22:11:01.623Z,16.96
2023-05-13T22:13:28.717Z,16.92
2023-05-13T22:15:56.164Z,16.90
2023-05-13T22:18:24.043Z,16.88
2023-05-13T22:20:51.383Z,16.84
2023-05-13T22:23:18.369Z,16.81
2023-05-13T22:25:45.441Z,16.77
2023-05-13T22:28:12.496Z,16.72
2023-05-13T22:30:39.794Z,16.68
2023-05-13T22:33:06.857Z,16.61
2023-05-13T22:35:36.656Z,16.59
2023-05-13T22:38:04.347Z,16.57
2023-05-13T22:40:31.393Z,16.56
2023-05-13T22:42:58.384Z,16.55
2023-05-13T22:45:25.423Z,16.56
2023-05-13T22:47:52.497Z,16.58
2023-05-13T22:50:19.726Z,16.54
2023-05-13T22:52:46.826Z,16.53
2023-05-13T22:55:13.836Z,16.51
2023-05-13T22:57:40.877Z,16.51
2023-05-13T23:00:08.481Z,16.49
2023-05-13T23:02:35.587Z,16.45
2023-05-13T23:05:03.032Z,16.48
2023-05-13T23:07:30.180Z,16.48
2023-05-13T23:09:57.391Z,16.43
2023-05-13T23:12:24.513Z,16.33
2023-05-13T23:14:52.919Z,16.31
2023-05-13T23:17:20.376Z,16.30
2023-05-13T23:19:47.542Z,16.27
2023-05-13T23:22:14.724Z,16.24
2023-05-13T23:24:42.620Z,16.16
2023-05-13T23:27:09.771Z,16.14
2023-05-13T23:29:36.882Z,16.15
2023-05-13T23:32:06.573Z,16.10
2023-05-13T23:34:34.234Z,16.10
2023-05-13T23:37:01.438Z,16.06
2023-05-13T23:39:28.576Z,16.07
2023-05-13T23:41:55.748Z,16.01
2023-05-13T23:44:23.358Z,15.96
2023-05-13T23:46:50.712Z,15.93
2023-05-13T23:49:17.840Z,15.95
2023-05-13T23:51:45.065Z,16.01
2023-05-13T23:54:12.260Z,16.07
2023-05-13T23:56:39.595Z,16.14
2023-05-13T23:59:08.822Z,16.15
